Abraham Baldwin College, Georgia
Current Conditions -  °F | °C
As of 8:35 PM on Monday 24 Nov 2014 (Local Time) from KTMA Reporting Station
Light Rain Light Rain  
Wind Chill: 65°   Ceiling: 12000
Heat Index: 65°   Visibility: 4mi
Dew Point: 65°   Wind: 0mph
Humidity: 99%   Direction: NA
Pressure: 29.96"   Gusts: NA
Location:  31.4406°N, 83.464°W
Report Text: KTMA 250135Z AUTO 00000KT 4SM -RA SCT065 SCT090 BKN120 19/18 A2996 RMK AO2 LTG DSNT E THRU S T01850183
Loading
Personal Weather Stations






























Interactive Weather Map New forecast layout! Learn more

10-Day Weather Forecast

Advertisements
Track Severe Weather on mobile